sensor_id;sensor_type;location;lat;lon;timestamp;P1;durP1;ratioP1;P2;durP2;ratioP2
47309;SDS011;33046;52.270;6.832;2023-03-16T00:01:50;7.38;;;1.70;;
47309;SDS011;33046;52.270;6.832;2023-03-16T00:03:57;4.43;;;1.90;;
47309;SDS011;33046;52.270;6.832;2023-03-16T00:06:04;5.82;;;2.08;;
47309;SDS011;33046;52.270;6.832;2023-03-16T00:08:11;4.03;;;1.70;;
47309;SDS011;33046;52.270;6.832;2023-03-16T00:10:19;4.18;;;1.40;;
47309;SDS011;33046;52.270;6.832;2023-03-16T00:12:26;4.70;;;2.00;;
47309;SDS011;33046;52.270;6.832;2023-03-16T00:14:33;3.50;;;1.75;;
47309;SDS011;33046;52.270;6.832;2023-03-16T00:16:40;4.47;;;2.17;;
47309;SDS011;33046;52.270;6.832;2023-03-16T00:18:46;4.22;;;2.08;;
47309;SDS011;33046;52.270;6.832;2023-03-16T00:20:54;6.35;;;1.75;;
47309;SDS011;33046;52.270;6.832;2023-03-16T00:23:02;4.00;;;1.95;;
47309;SDS011;33046;52.270;6.832;2023-03-16T00:25:09;6.00;;;1.98;;
47309;SDS011;33046;52.270;6.832;2023-03-16T00:27:18;5.18;;;1.60;;
47309;SDS011;33046;52.270;6.832;2023-03-16T00:29:25;3.67;;;1.50;;
47309;SDS011;33046;52.270;6.832;2023-03-16T00:31:32;6.53;;;1.90;;
47309;SDS011;33046;52.270;6.832;2023-03-16T00:33:39;4.80;;;1.98;;
47309;SDS011;33046;52.270;6.832;2023-03-16T00:35:47;3.28;;;2.08;;
47309;SDS011;33046;52.270;6.832;2023-03-16T00:37:54;4.57;;;1.90;;
47309;SDS011;33046;52.270;6.832;2023-03-16T00:40:00;8.07;;;1.83;;
47309;SDS011;33046;52.270;6.832;2023-03-16T00:42:08;5.93;;;2.30;;
47309;SDS011;33046;52.270;6.832;2023-03-16T00:44:16;6.15;;;1.50;;
47309;SDS011;33046;52.270;6.832;2023-03-16T00:46:23;5.40;;;2.10;;
47309;SDS011;33046;52.270;6.832;2023-03-16T00:48:30;4.63;;;2.13;;
47309;SDS011;33046;52.270;6.832;2023-03-16T00:50:37;4.72;;;2.20;;
47309;SDS011;33046;52.270;6.832;2023-03-16T00:52:44;7.20;;;1.85;;
47309;SDS011;33046;52.270;6.832;2023-03-16T00:54:52;9.32;;;2.33;;
47309;SDS011;33046;52.270;6.832;2023-03-16T00:57:00;6.28;;;1.80;;
47309;SDS011;33046;52.270;6.832;2023-03-16T00:59:07;6.60;;;1.77;;
47309;SDS011;33046;52.270;6.832;2023-03-16T01:01:16;6.20;;;2.15;;
47309;SDS011;33046;52.270;6.832;2023-03-16T01:03:24;5.32;;;1.60;;
47309;SDS011;33046;52.270;6.832;2023-03-16T01:05:31;4.97;;;2.80;;
47309;SDS011;33046;52.270;6.832;2023-03-16T01:07:38;4.75;;;1.80;;
47309;SDS011;33046;52.270;6.832;2023-03-16T01:09:45;6.28;;;2.10;;
47309;SDS011;33046;52.270;6.832;2023-03-16T01:11:52;5.00;;;2.40;;
47309;SDS011;33046;52.270;6.832;2023-03-16T01:13:59;3.35;;;1.75;;
47309;SDS011;33046;52.270;6.832;2023-03-16T01:16:06;3.20;;;1.85;;
47309;SDS011;33046;52.270;6.832;2023-03-16T01:18:15;5.93;;;2.13;;
47309;SDS011;33046;52.270;6.832;2023-03-16T01:20:22;8.02;;;2.33;;
47309;SDS011;33046;52.270;6.832;2023-03-16T01:22:29;4.03;;;2.28;;
47309;SDS011;33046;52.270;6.832;2023-03-16T01:24:36;4.47;;;2.05;;
47309;SDS011;33046;52.270;6.832;2023-03-16T01:26:44;5.13;;;2.28;;
47309;SDS011;33046;52.270;6.832;2023-03-16T01:28:51;4.07;;;2.00;;
47309;SDS011;33046;52.270;6.832;2023-03-16T01:30:59;4.65;;;1.98;;
47309;SDS011;33046;52.270;6.832;2023-03-16T01:33:08;8.45;;;2.45;;
47309;SDS011;33046;52.270;6.832;2023-03-16T01:35:16;14.65;;;3.65;;
47309;SDS011;33046;52.270;6.832;2023-03-16T01:37:23;5.25;;;1.80;;
47309;SDS011;33046;52.270;6.832;2023-03-16T01:39:35;11.02;;;2.40;;
47309;SDS011;33046;52.270;6.832;2023-03-16T01:41:43;5.05;;;1.98;;
47309;SDS011;33046;52.270;6.832;2023-03-16T01:43:51;4.20;;;2.00;;
47309;SDS011;33046;52.270;6.832;2023-03-16T01:48:30;4.43;;;2.20;;
47309;SDS011;33046;52.270;6.832;2023-03-16T01:50:40;4.60;;;3.15;;
47309;SDS011;33046;52.270;6.832;2023-03-16T01:52:48;5.38;;;2.47;;
47309;SDS011;33046;52.270;6.832;2023-03-16T01:54:56;4.65;;;1.98;;
47309;SDS011;33046;52.270;6.832;2023-03-16T01:57:06;4.57;;;1.70;;
47309;SDS011;33046;52.270;6.832;2023-03-16T01:59:16;3.63;;;1.80;;
47309;SDS011;33046;52.270;6.832;2023-03-16T02:01:26;3.95;;;1.90;;
47309;SDS011;33046;52.270;6.832;2023-03-16T02:03:36;4.90;;;2.10;;
47309;SDS011;33046;52.270;6.832;2023-03-16T02:05:55;3.10;;;1.65;;
47309;SDS011;33046;52.270;6.832;2023-03-16T02:08:08;3.55;;;2.28;;
47309;SDS011;33046;52.270;6.832;2023-03-16T02:10:17;5.55;;;2.40;;
47309;SDS011;33046;52.270;6.832;2023-03-16T02:12:25;6.60;;;1.80;;
47309;SDS011;33046;52.270;6.832;2023-03-16T02:14:34;3.92;;;1.85;;
47309;SDS011;33046;52.270;6.832;2023-03-16T02:16:41;6.32;;;2.53;;
47309;SDS011;33046;52.270;6.832;2023-03-16T02:18:48;5.38;;;3.47;;
47309;SDS011;33046;52.270;6.832;2023-03-16T02:20:59;3.13;;;2.10;;
47309;SDS011;33046;52.270;6.832;2023-03-16T02:23:12;5.70;;;1.98;;
47309;SDS011;33046;52.270;6.832;2023-03-16T02:25:25;3.35;;;1.85;;
47309;SDS011;33046;52.270;6.832;2023-03-16T02:27:50;7.43;;;2.25;;
47309;SDS011;33046;52.270;6.832;2023-03-16T02:30:06;4.70;;;2.47;;
47309;SDS011;33046;52.270;6.832;2023-03-16T02:32:22;4.55;;;1.75;;
47309;SDS011;33046;52.270;6.832;2023-03-16T02:34:30;3.35;;;1.83;;
47309;SDS011;33046;52.270;6.832;2023-03-16T02:36:37;4.70;;;2.30;;
47309;SDS011;33046;52.270;6.832;2023-03-16T02:38:46;4.82;;;2.45;;
47309;SDS011;33046;52.270;6.832;2023-03-16T02:40:56;3.55;;;2.60;;
47309;SDS011;33046;52.270;6.832;2023-03-16T02:43:05;6.82;;;2.15;;
47309;SDS011;33046;52.270;6.832;2023-03-16T02:45:22;3.95;;;1.88;;
47309;SDS011;33046;52.270;6.832;2023-03-16T02:47:33;3.67;;;1.90;;
47309;SDS011;33046;52.270;6.832;2023-03-16T02:49:43;3.75;;;2.10;;
47309;SDS011;33046;52.270;6.832;2023-03-16T02:51:50;4.47;;;2.58;;
47309;SDS011;33046;52.270;6.832;2023-03-16T02:53:58;5.65;;;1.67;;
47309;SDS011;33046;52.270;6.832;2023-03-16T02:56:09;11.52;;;2.70;;
47309;SDS011;33046;52.270;6.832;2023-03-16T02:58:16;3.75;;;2.38;;
47309;SDS011;33046;52.270;6.832;2023-03-16T03:00:26;4.22;;;2.40;;
47309;SDS011;33046;52.270;6.832;2023-03-16T03:02:33;4.10;;;2.38;;
47309;SDS011;33046;52.270;6.832;2023-03-16T03:04:40;6.38;;;2.83;;
47309;SDS011;33046;52.270;6.832;2023-03-16T03:06:47;5.10;;;2.33;;
47309;SDS011;33046;52.270;6.832;2023-03-16T03:08:54;7.00;;;2.10;;
47309;SDS011;33046;52.270;6.832;2023-03-16T03:11:01;5.50;;;2.70;;
47309;SDS011;33046;52.270;6.832;2023-03-16T03:13:08;3.25;;;2.15;;
47309;SDS011;33046;52.270;6.832;2023-03-16T03:15:16;4.97;;;2.67;;
47309;SDS011;33046;52.270;6.832;2023-03-16T03:17:35;5.32;;;2.05;;
47309;SDS011;33046;52.270;6.832;2023-03-16T03:19:42;4.93;;;2.85;;
47309;SDS011;33046;52.270;6.832;2023-03-16T03:21:49;4.57;;;2.35;;
47309;SDS011;33046;52.270;6.832;2023-03-16T03:23:56;4.00;;;2.72;;
47309;SDS011;33046;52.270;6.832;2023-03-16T03:26:03;6.10;;;2.17;;
47309;SDS011;33046;52.270;6.832;2023-03-16T03:28:11;5.82;;;2.00;;
47309;SDS011;33046;52.270;6.832;2023-03-16T03:30:18;5.55;;;1.85;;
47309;SDS011;33046;52.270;6.832;2023-03-16T03:32:26;4.05;;;1.70;;
47309;SDS011;33046;52.270;6.832;2023-03-16T03:34:34;7.40;;;1.98;;
47309;SDS011;33046;52.270;6.832;2023-03-16T03:36:43;4.15;;;2.03;;
47309;SDS011;33046;52.270;6.832;2023-03-16T03:38:50;4.10;;;2.17;;
47309;SDS011;33046;52.270;6.832;2023-03-16T03:40:58;5.70;;;3.25;;
47309;SDS011;33046;52.270;6.832;2023-03-16T03:43:09;5.25;;;2.40;;
47309;SDS011;33046;52.270;6.832;2023-03-16T03:45:20;2.67;;;1.85;;
47309;SDS011;33046;52.270;6.832;2023-03-16T03:47:27;5.05;;;2.28;;
47309;SDS011;33046;52.270;6.832;2023-03-16T03:49:36;5.85;;;2.03;;
47309;SDS011;33046;52.270;6.832;2023-03-16T03:51:43;5.45;;;2.00;;
47309;SDS011;33046;52.270;6.832;2023-03-16T03:53:54;3.47;;;1.60;;
47309;SDS011;33046;52.270;6.832;2023-03-16T03:56:27;4.00;;;2.85;;
47309;SDS011;33046;52.270;6.832;2023-03-16T03:58:34;3.90;;;2.03;;
47309;SDS011;33046;52.270;6.832;2023-03-16T04:00:41;3.60;;;2.33;;
47309;SDS011;33046;52.270;6.832;2023-03-16T04:02:48;5.22;;;2.40;;
47309;SDS011;33046;52.270;6.832;2023-03-16T04:05:04;4.47;;;2.35;;
47309;SDS011;33046;52.270;6.832;2023-03-16T04:07:13;5.18;;;2.90;;
47309;SDS011;33046;52.270;6.832;2023-03-16T04:09:21;4.78;;;1.95;;
47309;SDS011;33046;52.270;6.832;2023-03-16T04:11:29;4.35;;;1.50;;
47309;SDS011;33046;52.270;6.832;2023-03-16T04:13:36;4.45;;;2.35;;
47309;SDS011;33046;52.270;6.832;2023-03-16T04:15:43;6.72;;;2.00;;
47309;SDS011;33046;52.270;6.832;2023-03-16T04:17:56;3.03;;;1.73;;
47309;SDS011;33046;52.270;6.832;2023-03-16T04:20:05;4.13;;;2.33;;
47309;SDS011;33046;52.270;6.832;2023-03-16T04:22:14;4.25;;;2.00;;
47309;SDS011;33046;52.270;6.832;2023-03-16T04:24:21;6.40;;;2.42;;
47309;SDS011;33046;52.270;6.832;2023-03-16T04:26:28;6.78;;;2.30;;
47309;SDS011;33046;52.270;6.832;2023-03-16T04:28:35;3.33;;;1.63;;
47309;SDS011;33046;52.270;6.832;2023-03-16T04:30:42;3.67;;;1.88;;
47309;SDS011;33046;52.270;6.832;2023-03-16T04:32:57;5.95;;;2.03;;
47309;SDS011;33046;52.270;6.832;2023-03-16T04:35:05;4.30;;;1.80;;
47309;SDS011;33046;52.270;6.832;2023-03-16T04:37:25;3.47;;;1.98;;
47309;SDS011;33046;52.270;6.832;2023-03-16T04:39:32;2.78;;;1.77;;
47309;SDS011;33046;52.270;6.832;2023-03-16T04:41:38;4.53;;;1.70;;
47309;SDS011;33046;52.270;6.832;2023-03-16T04:43:57;3.97;;;2.22;;
47309;SDS011;33046;52.270;6.832;2023-03-16T04:46:04;3.50;;;1.95;;
47309;SDS011;33046;52.270;6.832;2023-03-16T04:48:12;3.42;;;1.70;;
47309;SDS011;33046;52.270;6.832;2023-03-16T04:50:21;3.90;;;1.88;;
47309;SDS011;33046;52.270;6.832;2023-03-16T04:52:31;3.50;;;2.08;;
47309;SDS011;33046;52.270;6.832;2023-03-16T04:54:40;4.15;;;3.10;;
47309;SDS011;33046;52.270;6.832;2023-03-16T04:56:48;6.28;;;3.28;;
47309;SDS011;33046;52.270;6.832;2023-03-16T04:59:05;5.75;;;2.80;;
47309;SDS011;33046;52.270;6.832;2023-03-16T05:01:22;3.97;;;2.33;;
47309;SDS011;33046;52.270;6.832;2023-03-16T05:03:33;6.05;;;2.10;;
47309;SDS011;33046;52.270;6.832;2023-03-16T05:05:44;3.72;;;2.28;;
47309;SDS011;33046;52.270;6.832;2023-03-16T05:07:53;5.25;;;3.70;;
47309;SDS011;33046;52.270;6.832;2023-03-16T05:10:00;11.07;;;7.68;;
47309;SDS011;33046;52.270;6.832;2023-03-16T05:12:08;7.38;;;5.57;;
47309;SDS011;33046;52.270;6.832;2023-03-16T05:14:16;12.48;;;9.48;;
47309;SDS011;33046;52.270;6.832;2023-03-16T05:16:36;14.57;;;9.88;;
47309;SDS011;33046;52.270;6.832;2023-03-16T05:18:43;6.93;;;4.40;;
47309;SDS011;33046;52.270;6.832;2023-03-16T05:20:52;4.68;;;3.30;;
47309;SDS011;33046;52.270;6.832;2023-03-16T05:22:59;5.80;;;3.20;;
47309;SDS011;33046;52.270;6.832;2023-03-16T05:25:17;5.15;;;3.53;;
47309;SDS011;33046;52.270;6.832;2023-03-16T05:27:28;4.38;;;2.58;;
47309;SDS011;33046;52.270;6.832;2023-03-16T05:29:35;4.82;;;2.70;;
47309;SDS011;33046;52.270;6.832;2023-03-16T05:31:42;6.32;;;3.40;;
47309;SDS011;33046;52.270;6.832;2023-03-16T05:33:53;4.32;;;1.95;;
47309;SDS011;33046;52.270;6.832;2023-03-16T05:36:02;3.10;;;1.95;;
47309;SDS011;33046;52.270;6.832;2023-03-16T05:38:11;5.35;;;2.47;;
47309;SDS011;33046;52.270;6.832;2023-03-16T05:40:20;3.58;;;2.10;;
47309;SDS011;33046;52.270;6.832;2023-03-16T05:42:33;3.20;;;1.75;;
47309;SDS011;33046;52.270;6.832;2023-03-16T05:44:40;2.28;;;2.00;;
47309;SDS011;33046;52.270;6.832;2023-03-16T05:46:47;2.65;;;1.75;;
47309;SDS011;33046;52.270;6.832;2023-03-16T05:48:54;2.85;;;1.75;;
47309;SDS011;33046;52.270;6.832;2023-03-16T05:51:03;5.72;;;1.80;;
47309;SDS011;33046;52.270;6.832;2023-03-16T05:53:10;2.30;;;1.42;;
47309;SDS011;33046;52.270;6.832;2023-03-16T05:55:18;4.22;;;2.28;;
47309;SDS011;33046;52.270;6.832;2023-03-16T05:57:30;3.53;;;2.17;;
47309;SDS011;33046;52.270;6.832;2023-03-16T05:59:38;8.13;;;2.13;;
47309;SDS011;33046;52.270;6.832;2023-03-16T06:01:51;4.32;;;1.90;;
47309;SDS011;33046;52.270;6.832;2023-03-16T06:03:59;3.72;;;1.67;;
47309;SDS011;33046;52.270;6.832;2023-03-16T06:06:09;2.88;;;1.65;;
47309;SDS011;33046;52.270;6.832;2023-03-16T06:08:26;3.67;;;1.73;;
47309;SDS011;33046;52.270;6.832;2023-03-16T06:10:39;4.47;;;1.73;;
47309;SDS011;33046;52.270;6.832;2023-03-16T06:12:46;2.63;;;1.27;;
47309;SDS011;33046;52.270;6.832;2023-03-16T06:14:53;3.60;;;2.17;;
47309;SDS011;33046;52.270;6.832;2023-03-16T06:17:00;2.42;;;1.40;;
47309;SDS011;33046;52.270;6.832;2023-03-16T06:19:08;2.58;;;1.45;;
47309;SDS011;33046;52.270;6.832;2023-03-16T06:21:16;4.70;;;1.60;;
47309;SDS011;33046;52.270;6.832;2023-03-16T06:23:26;4.88;;;1.85;;
47309;SDS011;33046;52.270;6.832;2023-03-16T06:25:34;3.15;;;1.88;;
47309;SDS011;33046;52.270;6.832;2023-03-16T06:27:43;3.42;;;1.60;;
47309;SDS011;33046;52.270;6.832;2023-03-16T06:29:54;4.22;;;2.25;;
47309;SDS011;33046;52.270;6.832;2023-03-16T06:32:01;2.33;;;1.38;;
47309;SDS011;33046;52.270;6.832;2023-03-16T06:34:09;3.85;;;2.63;;
47309;SDS011;33046;52.270;6.832;2023-03-16T06:36:18;3.30;;;1.70;;
47309;SDS011;33046;52.270;6.832;2023-03-16T06:38:30;4.53;;;1.85;;
47309;SDS011;33046;52.270;6.832;2023-03-16T06:40:41;3.38;;;1.75;;
47309;SDS011;33046;52.270;6.832;2023-03-16T06:42:48;3.85;;;1.77;;
47309;SDS011;33046;52.270;6.832;2023-03-16T06:44:56;2.88;;;1.80;;
47309;SDS011;33046;52.270;6.832;2023-03-16T06:47:03;4.10;;;1.80;;
47309;SDS011;33046;52.270;6.832;2023-03-16T06:49:10;3.33;;;2.22;;
47309;SDS011;33046;52.270;6.832;2023-03-16T06:51:19;3.83;;;1.83;;
47309;SDS011;33046;52.270;6.832;2023-03-16T06:53:27;5.90;;;1.77;;
47309;SDS011;33046;52.270;6.832;2023-03-16T06:55:35;3.30;;;1.42;;
47309;SDS011;33046;52.270;6.832;2023-03-16T06:57:42;5.53;;;2.22;;
47309;SDS011;33046;52.270;6.832;2023-03-16T06:59:50;3.40;;;1.80;;
47309;SDS011;33046;52.270;6.832;2023-03-16T07:01:57;3.00;;;2.08;;
47309;SDS011;33046;52.270;6.832;2023-03-16T07:04:03;4.68;;;1.80;;
47309;SDS011;33046;52.270;6.832;2023-03-16T07:06:12;3.13;;;1.63;;
47309;SDS011;33046;52.270;6.832;2023-03-16T07:08:22;3.03;;;2.72;;
47309;SDS011;33046;52.270;6.832;2023-03-16T07:10:29;3.55;;;1.65;;
47309;SDS011;33046;52.270;6.832;2023-03-16T07:12:36;8.57;;;2.92;;
47309;SDS011;33046;52.270;6.832;2023-03-16T07:14:43;3.97;;;1.83;;
47309;SDS011;33046;52.270;6.832;2023-03-16T07:16:52;3.67;;;1.85;;
47309;SDS011;33046;52.270;6.832;2023-03-16T07:19:00;3.50;;;1.60;;
47309;SDS011;33046;52.270;6.832;2023-03-16T07:21:07;3.22;;;2.03;;
47309;SDS011;33046;52.270;6.832;2023-03-16T07:23:14;3.55;;;2.03;;
47309;SDS011;33046;52.270;6.832;2023-03-16T07:25:23;3.20;;;1.67;;
47309;SDS011;33046;52.270;6.832;2023-03-16T07:27:32;4.75;;;1.85;;
47309;SDS011;33046;52.270;6.832;2023-03-16T07:29:43;3.58;;;1.73;;
47309;SDS011;33046;52.270;6.832;2023-03-16T07:31:50;4.10;;;1.83;;
47309;SDS011;33046;52.270;6.832;2023-03-16T07:34:00;2.72;;;2.17;;
47309;SDS011;33046;52.270;6.832;2023-03-16T07:36:31;4.43;;;2.72;;
47309;SDS011;33046;52.270;6.832;2023-03-16T07:38:40;3.92;;;2.10;;
47309;SDS011;33046;52.270;6.832;2023-03-16T07:40:48;4.80;;;2.35;;
47309;SDS011;33046;52.270;6.832;2023-03-16T07:42:59;5.40;;;2.38;;
47309;SDS011;33046;52.270;6.832;2023-03-16T07:45:13;3.38;;;2.25;;
47309;SDS011;33046;52.270;6.832;2023-03-16T07:47:21;4.50;;;3.22;;
47309;SDS011;33046;52.270;6.832;2023-03-16T07:49:33;3.70;;;1.90;;
47309;SDS011;33046;52.270;6.832;2023-03-16T07:51:40;4.47;;;2.15;;
47309;SDS011;33046;52.270;6.832;2023-03-16T07:53:47;3.47;;;1.80;;
47309;SDS011;33046;52.270;6.832;2023-03-16T07:56:00;4.85;;;2.42;;
47309;SDS011;33046;52.270;6.832;2023-03-16T07:58:10;3.97;;;2.67;;
47309;SDS011;33046;52.270;6.832;2023-03-16T08:00:20;4.35;;;2.28;;
47309;SDS011;33046;52.270;6.832;2023-03-16T08:02:27;6.97;;;2.50;;
47309;SDS011;33046;52.270;6.832;2023-03-16T08:04:34;3.33;;;2.17;;
47309;SDS011;33046;52.270;6.832;2023-03-16T08:06:42;6.03;;;2.40;;
47309;SDS011;33046;52.270;6.832;2023-03-16T08:08:48;5.57;;;2.70;;
47309;SDS011;33046;52.270;6.832;2023-03-16T08:11:07;6.38;;;2.47;;
47309;SDS011;33046;52.270;6.832;2023-03-16T08:13:26;3.72;;;3.13;;
47309;SDS011;33046;52.270;6.832;2023-03-16T08:15:33;3.72;;;2.45;;
47309;SDS011;33046;52.270;6.832;2023-03-16T08:17:48;7.85;;;3.80;;
47309;SDS011;33046;52.270;6.832;2023-03-16T08:20:01;3.50;;;2.13;;
47309;SDS011;33046;52.270;6.832;2023-03-16T08:22:08;5.65;;;2.70;;
47309;SDS011;33046;52.270;6.832;2023-03-16T08:24:19;5.05;;;2.63;;
47309;SDS011;33046;52.270;6.832;2023-03-16T08:26:28;3.17;;;2.40;;
47309;SDS011;33046;52.270;6.832;2023-03-16T08:28:36;5.65;;;2.65;;
47309;SDS011;33046;52.270;6.832;2023-03-16T08:30:48;4.88;;;3.35;;
47309;SDS011;33046;52.270;6.832;2023-03-16T08:33:07;4.88;;;2.75;;
47309;SDS011;33046;52.270;6.832;2023-03-16T08:35:14;10.95;;;6.82;;
47309;SDS011;33046;52.270;6.832;2023-03-16T08:37:23;5.45;;;2.40;;
47309;SDS011;33046;52.270;6.832;2023-03-16T08:39:32;7.13;;;3.28;;
47309;SDS011;33046;52.270;6.832;2023-03-16T08:41:43;3.63;;;2.53;;
47309;SDS011;33046;52.270;6.832;2023-03-16T08:44:09;3.53;;;2.80;;
47309;SDS011;33046;52.270;6.832;2023-03-16T08:46:16;7.05;;;3.40;;
47309;SDS011;33046;52.270;6.832;2023-03-16T08:48:31;7.57;;;3.67;;
47309;SDS011;33046;52.270;6.832;2023-03-16T08:50:38;5.43;;;2.55;;
47309;SDS011;33046;52.270;6.832;2023-03-16T08:52:46;3.60;;;2.88;;
47309;SDS011;33046;52.270;6.832;2023-03-16T08:54:53;5.10;;;3.28;;
47309;SDS011;33046;52.270;6.832;2023-03-16T08:57:09;5.45;;;2.95;;
47309;SDS011;33046;52.270;6.832;2023-03-16T08:59:16;5.35;;;3.25;;
47309;SDS011;33046;52.270;6.832;2023-03-16T09:01:34;5.10;;;3.42;;
47309;SDS011;33046;52.270;6.832;2023-03-16T09:03:41;4.03;;;2.92;;
47309;SDS011;33046;52.270;6.832;2023-03-16T09:05:48;5.93;;;3.20;;
47309;SDS011;33046;52.270;6.832;2023-03-16T09:07:54;6.30;;;2.85;;
47309;SDS011;33046;52.270;6.832;2023-03-16T09:10:02;6.93;;;5.38;;
47309;SDS011;33046;52.270;6.832;2023-03-16T09:12:10;6.22;;;3.30;;
47309;SDS011;33046;52.270;6.832;2023-03-16T09:14:17;6.35;;;3.35;;
47309;SDS011;33046;52.270;6.832;2023-03-16T09:16:24;5.55;;;3.65;;
47309;SDS011;33046;52.270;6.832;2023-03-16T09:18:31;4.78;;;3.53;;
47309;SDS011;33046;52.270;6.832;2023-03-16T09:20:39;4.68;;;3.05;;
47309;SDS011;33046;52.270;6.832;2023-03-16T09:22:46;3.92;;;2.78;;
47309;SDS011;33046;52.270;6.832;2023-03-16T09:24:53;7.65;;;3.63;;
47309;SDS011;33046;52.270;6.832;2023-03-16T09:27:00;4.50;;;3.38;;
47309;SDS011;33046;52.270;6.832;2023-03-16T09:29:08;5.05;;;3.13;;
47309;SDS011;33046;52.270;6.832;2023-03-16T09:31:15;6.38;;;3.22;;
47309;SDS011;33046;52.270;6.832;2023-03-16T09:33:24;4.40;;;3.10;;
47309;SDS011;33046;52.270;6.832;2023-03-16T09:35:31;4.85;;;3.10;;
47309;SDS011;33046;52.270;6.832;2023-03-16T09:37:39;5.25;;;3.08;;
47309;SDS011;33046;52.270;6.832;2023-03-16T09:39:49;8.73;;;3.88;;
47309;SDS011;33046;52.270;6.832;2023-03-16T09:41:58;5.47;;;2.75;;
47309;SDS011;33046;52.270;6.832;2023-03-16T09:44:15;6.55;;;4.05;;
47309;SDS011;33046;52.270;6.832;2023-03-16T09:46:31;5.85;;;2.80;;
47309;SDS011;33046;52.270;6.832;2023-03-16T09:48:41;4.65;;;2.78;;
47309;SDS011;33046;52.270;6.832;2023-03-16T09:50:48;4.93;;;3.10;;
47309;SDS011;33046;52.270;6.832;2023-03-16T09:52:59;4.55;;;2.80;;
47309;SDS011;33046;52.270;6.832;2023-03-16T09:55:11;4.25;;;3.33;;
47309;SDS011;33046;52.270;6.832;2023-03-16T09:57:30;6.18;;;3.00;;
47309;SDS011;33046;52.270;6.832;2023-03-16T09:59:40;5.07;;;2.67;;
47309;SDS011;33046;52.270;6.832;2023-03-16T10:01:57;3.55;;;2.92;;
47309;SDS011;33046;52.270;6.832;2023-03-16T10:04:14;5.07;;;2.85;;
47309;SDS011;33046;52.270;6.832;2023-03-16T10:06:28;3.67;;;2.75;;
47309;SDS011;33046;52.270;6.832;2023-03-16T10:08:36;7.05;;;3.38;;
47309;SDS011;33046;52.270;6.832;2023-03-16T10:10:48;11.02;;;8.27;;
47309;SDS011;33046;52.270;6.832;2023-03-16T10:13:04;18.48;;;16.58;;
47309;SDS011;33046;52.270;6.832;2023-03-16T10:15:24;10.02;;;9.18;;
47309;SDS011;33046;52.270;6.832;2023-03-16T10:17:34;7.72;;;7.03;;
47309;SDS011;33046;52.270;6.832;2023-03-16T10:19:46;6.45;;;5.85;;
47309;SDS011;33046;52.270;6.832;2023-03-16T10:21:56;7.47;;;3.75;;
47309;SDS011;33046;52.270;6.832;2023-03-16T10:24:15;6.78;;;4.07;;
47309;SDS011;33046;52.270;6.832;2023-03-16T10:26:30;5.55;;;4.43;;
47309;SDS011;33046;52.270;6.832;2023-03-16T10:28:41;5.15;;;3.42;;
47309;SDS011;33046;52.270;6.832;2023-03-16T10:30:51;4.70;;;3.33;;
47309;SDS011;33046;52.270;6.832;2023-03-16T10:33:00;3.45;;;2.95;;
47309;SDS011;33046;52.270;6.832;2023-03-16T10:35:10;5.43;;;3.30;;
47309;SDS011;33046;52.270;6.832;2023-03-16T10:37:28;3.13;;;2.53;;
47309;SDS011;33046;52.270;6.832;2023-03-16T10:39:36;5.13;;;2.97;;
47309;SDS011;33046;52.270;6.832;2023-03-16T10:41:43;4.97;;;2.42;;
47309;SDS011;33046;52.270;6.832;2023-03-16T10:43:52;6.45;;;2.58;;
47309;SDS011;33046;52.270;6.832;2023-03-16T10:46:01;7.82;;;2.63;;
47309;SDS011;33046;52.270;6.832;2023-03-16T10:48:11;4.15;;;2.20;;
47309;SDS011;33046;52.270;6.832;2023-03-16T10:50:22;4.57;;;2.58;;
47309;SDS011;33046;52.270;6.832;2023-03-16T10:52:32;4.07;;;2.92;;
47309;SDS011;33046;52.270;6.832;2023-03-16T10:54:46;3.20;;;2.33;;
47309;SDS011;33046;52.270;6.832;2023-03-16T10:56:55;5.78;;;2.17;;
47309;SDS011;33046;52.270;6.832;2023-03-16T10:59:13;3.47;;;2.25;;
47309;SDS011;33046;52.270;6.832;2023-03-16T11:01:32;4.40;;;2.30;;
47309;SDS011;33046;52.270;6.832;2023-03-16T11:03:39;5.35;;;2.47;;
47309;SDS011;33046;52.270;6.832;2023-03-16T11:05:46;4.75;;;1.73;;
47309;SDS011;33046;52.270;6.832;2023-03-16T11:08:01;4.72;;;2.47;;
47309;SDS011;33046;52.270;6.832;2023-03-16T11:10:18;3.13;;;1.70;;
47309;SDS011;33046;52.270;6.832;2023-03-16T11:12:32;3.03;;;1.73;;
47309;SDS011;33046;52.270;6.832;2023-03-16T11:14:42;6.40;;;2.60;;
47309;SDS011;33046;52.270;6.832;2023-03-16T11:16:52;3.75;;;2.35;;
47309;SDS011;33046;52.270;6.832;2023-03-16T11:19:10;4.78;;;1.90;;
47309;SDS011;33046;52.270;6.832;2023-03-16T11:21:26;3.47;;;1.48;;
47309;SDS011;33046;52.270;6.832;2023-03-16T11:23:47;2.58;;;1.83;;
47309;SDS011;33046;52.270;6.832;2023-03-16T11:25:56;3.47;;;2.08;;
47309;SDS011;33046;52.270;6.832;2023-03-16T11:28:07;6.10;;;2.42;;
47309;SDS011;33046;52.270;6.832;2023-03-16T11:30:22;3.63;;;2.00;;
47309;SDS011;33046;52.270;6.832;2023-03-16T11:32:35;3.15;;;2.13;;
47309;SDS011;33046;52.270;6.832;2023-03-16T11:34:44;4.38;;;2.47;;
47309;SDS011;33046;52.270;6.832;2023-03-16T11:36:51;5.57;;;2.05;;
47309;SDS011;33046;52.270;6.832;2023-03-16T11:39:02;3.83;;;2.22;;
47309;SDS011;33046;52.270;6.832;2023-03-16T11:41:18;5.53;;;1.73;;
47309;SDS011;33046;52.270;6.832;2023-03-16T11:43:42;5.97;;;2.83;;
47309;SDS011;33046;52.270;6.832;2023-03-16T11:46:00;4.70;;;2.40;;
47309;SDS011;33046;52.270;6.832;2023-03-16T11:48:18;3.72;;;1.63;;
47309;SDS011;33046;52.270;6.832;2023-03-16T11:50:35;4.55;;;2.33;;
47309;SDS011;33046;52.270;6.832;2023-03-16T11:52:53;4.25;;;1.98;;
47309;SDS011;33046;52.270;6.832;2023-03-16T11:55:09;3.28;;;1.80;;
47309;SDS011;33046;52.270;6.832;2023-03-16T11:57:30;4.25;;;1.98;;
47309;SDS011;33046;52.270;6.832;2023-03-16T11:59:50;3.25;;;2.45;;
47309;SDS011;33046;52.270;6.832;2023-03-16T12:02:25;4.60;;;2.17;;
47309;SDS011;33046;52.270;6.832;2023-03-16T12:04:48;6.07;;;2.22;;
47309;SDS011;33046;52.270;6.832;2023-03-16T12:07:04;3.97;;;2.20;;
47309;SDS011;33046;52.270;6.832;2023-03-16T12:09:30;2.80;;;1.58;;
47309;SDS011;33046;52.270;6.832;2023-03-16T12:11:51;2.58;;;1.83;;
47309;SDS011;33046;52.270;6.832;2023-03-16T12:14:04;3.72;;;2.00;;
47309;SDS011;33046;52.270;6.832;2023-03-16T12:16:19;4.60;;;2.60;;
47309;SDS011;33046;52.270;6.832;2023-03-16T12:18:31;5.13;;;1.83;;
47309;SDS011;33046;52.270;6.832;2023-03-16T12:20:49;3.47;;;1.80;;
47309;SDS011;33046;52.270;6.832;2023-03-16T12:23:01;5.00;;;1.73;;
47309;SDS011;33046;52.270;6.832;2023-03-16T12:25:12;3.10;;;1.55;;
47309;SDS011;33046;52.270;6.832;2023-03-16T12:27:24;4.33;;;1.87;;
47309;SDS011;33046;52.270;6.832;2023-03-16T12:29:35;2.60;;;1.60;;
47309;SDS011;33046;52.270;6.832;2023-03-16T12:31:48;3.00;;;1.55;;
47309;SDS011;33046;52.270;6.832;2023-03-16T12:34:05;3.55;;;1.98;;
47309;SDS011;33046;52.270;6.832;2023-03-16T12:38:59;4.30;;;1.60;;
47309;SDS011;33046;52.270;6.832;2023-03-16T12:41:10;3.85;;;2.08;;
47309;SDS011;33046;52.270;6.832;2023-03-16T12:43:27;3.47;;;1.83;;
47309;SDS011;33046;52.270;6.832;2023-03-16T12:45:44;2.97;;;1.30;;
47309;SDS011;33046;52.270;6.832;2023-03-16T12:48:02;4.32;;;1.98;;
47309;SDS011;33046;52.270;6.832;2023-03-16T12:50:15;2.58;;;1.67;;
47309;SDS011;33046;52.270;6.832;2023-03-16T12:52:23;3.85;;;1.60;;
47309;SDS011;33046;52.270;6.832;2023-03-16T12:54:31;3.95;;;1.70;;
47309;SDS011;33046;52.270;6.832;2023-03-16T12:56:42;3.80;;;1.85;;
47309;SDS011;33046;52.270;6.832;2023-03-16T12:58:50;3.53;;;1.85;;
47309;SDS011;33046;52.270;6.832;2023-03-16T13:01:02;4.07;;;1.88;;
47309;SDS011;33046;52.270;6.832;2023-03-16T13:03:19;2.22;;;1.35;;
47309;SDS011;33046;52.270;6.832;2023-03-16T13:05:27;3.28;;;1.60;;
47309;SDS011;33046;52.270;6.832;2023-03-16T13:07:36;3.45;;;1.73;;
47309;SDS011;33046;52.270;6.832;2023-03-16T13:09:52;3.72;;;1.80;;
47309;SDS011;33046;52.270;6.832;2023-03-16T13:12:02;3.80;;;2.35;;